Terminal Aerodrome Forecast
Issued by NWS Caribou, ME

Home | Current Version | Previous Version | Text Only | Print | Product List | Glossary On
Versions: 1 2 3 4 5 6 7 8 9 10 11 12 13 14 15 16 17
000
FTUS41 KCAR 261120
TAFCAR
TAF
KCAR 261120Z 2612/2712 32006KT P6SM SCT250
     FM270800 12004KT P6SM OVC050
     FM271000 13006KT P6SM OVC025
     FM271100 13006KT 6SM -SN OVC025=

USA.gov is the U.S. government's official web portal to all federal, state and local government web resources and services.